sensor_id;sensor_type;location;lat;lon;timestamp;P1;durP1;ratioP1;P2;durP2;ratioP2
7029;SDS011;3556;53.500;10.176;2022-07-06T00:00:33;2.20;;;1.90;;
7029;SDS011;3556;53.500;10.176;2022-07-06T00:02:59;5.13;;;1.73;;
7029;SDS011;3556;53.500;10.176;2022-07-06T00:05:24;2.67;;;1.90;;
7029;SDS011;3556;53.500;10.176;2022-07-06T00:07:50;5.17;;;1.63;;
7029;SDS011;3556;53.500;10.176;2022-07-06T00:10:16;1.70;;;1.60;;
7029;SDS011;3556;53.500;10.176;2022-07-06T00:12:42;5.20;;;1.90;;
7029;SDS011;3556;53.500;10.176;2022-07-06T00:15:07;3.13;;;1.67;;
7029;SDS011;3556;53.500;10.176;2022-07-06T00:17:33;4.83;;;1.80;;
7029;SDS011;3556;53.500;10.176;2022-07-06T00:19:59;3.50;;;1.67;;
7029;SDS011;3556;53.500;10.176;2022-07-06T00:22:25;2.10;;;1.90;;
7029;SDS011;3556;53.500;10.176;2022-07-06T00:24:51;1.90;;;1.80;;
7029;SDS011;3556;53.500;10.176;2022-07-06T00:27:16;8.90;;;1.90;;
7029;SDS011;3556;53.500;10.176;2022-07-06T00:29:42;2.60;;;1.60;;
7029;SDS011;3556;53.500;10.176;2022-07-06T00:32:09;2.00;;;1.80;;
7029;SDS011;3556;53.500;10.176;2022-07-06T00:34:36;1.77;;;1.50;;
7029;SDS011;3556;53.500;10.176;2022-07-06T00:37:04;2.87;;;1.77;;
7029;SDS011;3556;53.500;10.176;2022-07-06T00:39:31;5.03;;;1.50;;
7029;SDS011;3556;53.500;10.176;2022-07-06T00:41:57;4.73;;;1.80;;
7029;SDS011;3556;53.500;10.176;2022-07-06T00:44:23;2.80;;;1.80;;
7029;SDS011;3556;53.500;10.176;2022-07-06T00:46:49;3.00;;;1.87;;
7029;SDS011;3556;53.500;10.176;2022-07-06T00:49:14;2.13;;;1.90;;
7029;SDS011;3556;53.500;10.176;2022-07-06T00:51:59;3.47;;;1.67;;
7029;SDS011;3556;53.500;10.176;2022-07-06T00:54:25;3.77;;;2.17;;
7029;SDS011;3556;53.500;10.176;2022-07-06T00:56:55;1.57;;;1.47;;
7029;SDS011;3556;53.500;10.176;2022-07-06T00:59:20;3.00;;;1.60;;
7029;SDS011;3556;53.500;10.176;2022-07-06T01:01:47;2.13;;;1.70;;
7029;SDS011;3556;53.500;10.176;2022-07-06T01:04:13;3.17;;;1.60;;
7029;SDS011;3556;53.500;10.176;2022-07-06T01:06:39;1.60;;;1.43;;
7029;SDS011;3556;53.500;10.176;2022-07-06T01:09:05;2.60;;;1.70;;
7029;SDS011;3556;53.500;10.176;2022-07-06T01:11:31;2.90;;;1.67;;
7029;SDS011;3556;53.500;10.176;2022-07-06T01:13:57;1.60;;;1.50;;
7029;SDS011;3556;53.500;10.176;2022-07-06T01:16:25;8.00;;;2.50;;
7029;SDS011;3556;53.500;10.176;2022-07-06T01:18:51;3.90;;;1.63;;
7029;SDS011;3556;53.500;10.176;2022-07-06T01:21:16;2.10;;;1.77;;
7029;SDS011;3556;53.500;10.176;2022-07-06T01:23:43;8.20;;;2.10;;
7029;SDS011;3556;53.500;10.176;2022-07-06T01:26:11;5.73;;;2.20;;
7029;SDS011;3556;53.500;10.176;2022-07-06T01:28:39;4.40;;;2.00;;
7029;SDS011;3556;53.500;10.176;2022-07-06T01:31:05;1.90;;;1.80;;
7029;SDS011;3556;53.500;10.176;2022-07-06T01:33:46;2.33;;;1.90;;
7029;SDS011;3556;53.500;10.176;2022-07-06T01:36:13;4.70;;;2.00;;
7029;SDS011;3556;53.500;10.176;2022-07-06T01:38:45;3.67;;;1.90;;
7029;SDS011;3556;53.500;10.176;2022-07-06T01:41:15;4.23;;;2.03;;
7029;SDS011;3556;53.500;10.176;2022-07-06T01:43:42;3.27;;;1.73;;
7029;SDS011;3556;53.500;10.176;2022-07-06T01:46:07;5.23;;;2.00;;
7029;SDS011;3556;53.500;10.176;2022-07-06T01:48:33;3.30;;;2.10;;
7029;SDS011;3556;53.500;10.176;2022-07-06T01:50:59;3.43;;;1.70;;
7029;SDS011;3556;53.500;10.176;2022-07-06T01:53:24;2.53;;;1.63;;
7029;SDS011;3556;53.500;10.176;2022-07-06T01:55:50;2.07;;;1.90;;
7029;SDS011;3556;53.500;10.176;2022-07-06T01:58:15;11.00;;;2.17;;
7029;SDS011;3556;53.500;10.176;2022-07-06T02:00:41;2.50;;;1.53;;
7029;SDS011;3556;53.500;10.176;2022-07-06T02:03:07;2.20;;;1.90;;
7029;SDS011;3556;53.500;10.176;2022-07-06T02:05:33;4.63;;;2.20;;
7029;SDS011;3556;53.500;10.176;2022-07-06T02:07:58;3.20;;;2.30;;
7029;SDS011;3556;53.500;10.176;2022-07-06T02:10:24;5.50;;;2.00;;
7029;SDS011;3556;53.500;10.176;2022-07-06T02:12:49;4.70;;;2.07;;
7029;SDS011;3556;53.500;10.176;2022-07-06T02:15:15;4.90;;;2.20;;
7029;SDS011;3556;53.500;10.176;2022-07-06T02:17:41;3.00;;;2.07;;
7029;SDS011;3556;53.500;10.176;2022-07-06T02:20:07;2.10;;;1.90;;
7029;SDS011;3556;53.500;10.176;2022-07-06T02:22:33;2.30;;;2.00;;
7029;SDS011;3556;53.500;10.176;2022-07-06T02:24:58;2.03;;;1.87;;
7029;SDS011;3556;53.500;10.176;2022-07-06T02:27:24;5.60;;;2.27;;
7029;SDS011;3556;53.500;10.176;2022-07-06T02:29:50;2.87;;;1.60;;
7029;SDS011;3556;53.500;10.176;2022-07-06T02:32:16;2.80;;;1.90;;
7029;SDS011;3556;53.500;10.176;2022-07-06T02:34:41;2.97;;;2.03;;
7029;SDS011;3556;53.500;10.176;2022-07-06T02:37:07;5.90;;;2.50;;
7029;SDS011;3556;53.500;10.176;2022-07-06T02:39:33;3.60;;;2.27;;
7029;SDS011;3556;53.500;10.176;2022-07-06T02:41:59;6.87;;;2.10;;
7029;SDS011;3556;53.500;10.176;2022-07-06T02:44:24;6.90;;;2.90;;
7029;SDS011;3556;53.500;10.176;2022-07-06T02:46:50;7.80;;;3.47;;
7029;SDS011;3556;53.500;10.176;2022-07-06T02:49:16;11.47;;;3.40;;
7029;SDS011;3556;53.500;10.176;2022-07-06T02:51:41;8.13;;;3.63;;
7029;SDS011;3556;53.500;10.176;2022-07-06T02:54:07;6.87;;;3.60;;
7029;SDS011;3556;53.500;10.176;2022-07-06T02:56:33;6.40;;;4.10;;
7029;SDS011;3556;53.500;10.176;2022-07-06T02:58:58;9.07;;;4.57;;
7029;SDS011;3556;53.500;10.176;2022-07-06T03:01:24;6.90;;;4.50;;
7029;SDS011;3556;53.500;10.176;2022-07-06T03:03:50;7.03;;;3.87;;
7029;SDS011;3556;53.500;10.176;2022-07-06T03:06:15;5.03;;;4.63;;
7029;SDS011;3556;53.500;10.176;2022-07-06T03:08:41;9.23;;;6.03;;
7029;SDS011;3556;53.500;10.176;2022-07-06T03:11:07;12.80;;;6.47;;
7029;SDS011;3556;53.500;10.176;2022-07-06T03:13:32;9.90;;;6.40;;
7029;SDS011;3556;53.500;10.176;2022-07-06T03:15:58;8.63;;;6.50;;
7029;SDS011;3556;53.500;10.176;2022-07-06T03:18:24;7.00;;;6.30;;
7029;SDS011;3556;53.500;10.176;2022-07-06T03:20:49;6.83;;;4.63;;
7029;SDS011;3556;53.500;10.176;2022-07-06T03:23:15;8.30;;;4.97;;
7029;SDS011;3556;53.500;10.176;2022-07-06T03:25:40;6.57;;;5.07;;
7029;SDS011;3556;53.500;10.176;2022-07-06T03:28:06;5.40;;;4.90;;
7029;SDS011;3556;53.500;10.176;2022-07-06T03:30:32;6.80;;;5.50;;
7029;SDS011;3556;53.500;10.176;2022-07-06T03:32:57;9.20;;;5.33;;
7029;SDS011;3556;53.500;10.176;2022-07-06T03:35:23;8.80;;;5.30;;
7029;SDS011;3556;53.500;10.176;2022-07-06T03:37:48;8.40;;;3.73;;
7029;SDS011;3556;53.500;10.176;2022-07-06T03:40:14;6.70;;;3.77;;
7029;SDS011;3556;53.500;10.176;2022-07-06T03:42:40;4.03;;;2.80;;
7029;SDS011;3556;53.500;10.176;2022-07-06T03:45:05;9.00;;;2.97;;
7029;SDS011;3556;53.500;10.176;2022-07-06T03:47:32;5.90;;;2.57;;
7029;SDS011;3556;53.500;10.176;2022-07-06T03:49:57;8.93;;;2.40;;
7029;SDS011;3556;53.500;10.176;2022-07-06T03:52:23;4.70;;;2.67;;
7029;SDS011;3556;53.500;10.176;2022-07-06T03:54:49;6.77;;;2.80;;
7029;SDS011;3556;53.500;10.176;2022-07-06T03:57:15;3.40;;;2.53;;
7029;SDS011;3556;53.500;10.176;2022-07-06T03:59:41;5.23;;;2.13;;
7029;SDS011;3556;53.500;10.176;2022-07-06T04:02:07;3.53;;;2.43;;
7029;SDS011;3556;53.500;10.176;2022-07-06T04:04:33;5.23;;;2.40;;
7029;SDS011;3556;53.500;10.176;2022-07-06T04:06:59;8.70;;;2.60;;
7029;SDS011;3556;53.500;10.176;2022-07-06T04:09:25;3.00;;;2.00;;
7029;SDS011;3556;53.500;10.176;2022-07-06T04:11:51;2.40;;;2.00;;
7029;SDS011;3556;53.500;10.176;2022-07-06T04:14:17;3.53;;;2.40;;
7029;SDS011;3556;53.500;10.176;2022-07-06T04:16:43;1.90;;;1.80;;
7029;SDS011;3556;53.500;10.176;2022-07-06T04:19:08;10.27;;;2.40;;
7029;SDS011;3556;53.500;10.176;2022-07-06T04:21:34;8.67;;;2.03;;
7029;SDS011;3556;53.500;10.176;2022-07-06T04:24:00;2.33;;;1.87;;
7029;SDS011;3556;53.500;10.176;2022-07-06T04:26:26;3.43;;;1.70;;
7029;SDS011;3556;53.500;10.176;2022-07-06T04:28:52;3.87;;;2.00;;
7029;SDS011;3556;53.500;10.176;2022-07-06T04:31:18;5.60;;;1.83;;
7029;SDS011;3556;53.500;10.176;2022-07-06T04:33:43;4.80;;;1.70;;
7029;SDS011;3556;53.500;10.176;2022-07-06T04:36:09;2.20;;;1.60;;
7029;SDS011;3556;53.500;10.176;2022-07-06T04:38:35;1.63;;;1.50;;
7029;SDS011;3556;53.500;10.176;2022-07-06T04:41:01;5.47;;;1.80;;
7029;SDS011;3556;53.500;10.176;2022-07-06T04:43:27;4.40;;;1.40;;
7029;SDS011;3556;53.500;10.176;2022-07-06T04:45:53;3.63;;;1.50;;
7029;SDS011;3556;53.500;10.176;2022-07-06T04:48:18;3.93;;;1.90;;
7029;SDS011;3556;53.500;10.176;2022-07-06T04:50:44;4.83;;;2.13;;
7029;SDS011;3556;53.500;10.176;2022-07-06T04:53:10;1.60;;;1.50;;
7029;SDS011;3556;53.500;10.176;2022-07-06T04:55:35;3.97;;;2.07;;
7029;SDS011;3556;53.500;10.176;2022-07-06T04:58:01;4.03;;;1.73;;
7029;SDS011;3556;53.500;10.176;2022-07-06T05:00:27;6.43;;;1.90;;
7029;SDS011;3556;53.500;10.176;2022-07-06T05:02:52;3.70;;;2.00;;
7029;SDS011;3556;53.500;10.176;2022-07-06T05:05:18;7.77;;;2.07;;
7029;SDS011;3556;53.500;10.176;2022-07-06T05:07:44;4.43;;;2.03;;
7029;SDS011;3556;53.500;10.176;2022-07-06T05:10:10;3.23;;;1.83;;
7029;SDS011;3556;53.500;10.176;2022-07-06T05:12:37;3.33;;;1.90;;
7029;SDS011;3556;53.500;10.176;2022-07-06T05:15:03;2.40;;;1.93;;
7029;SDS011;3556;53.500;10.176;2022-07-06T05:17:29;4.90;;;2.10;;
7029;SDS011;3556;53.500;10.176;2022-07-06T05:19:55;14.80;;;2.57;;
7029;SDS011;3556;53.500;10.176;2022-07-06T05:22:21;7.87;;;1.87;;
7029;SDS011;3556;53.500;10.176;2022-07-06T05:24:47;6.10;;;2.23;;
7029;SDS011;3556;53.500;10.176;2022-07-06T05:27:12;3.30;;;1.57;;
7029;SDS011;3556;53.500;10.176;2022-07-06T05:29:38;2.93;;;1.60;;
7029;SDS011;3556;53.500;10.176;2022-07-06T05:32:03;4.10;;;1.67;;
7029;SDS011;3556;53.500;10.176;2022-07-06T05:34:29;3.00;;;1.33;;
7029;SDS011;3556;53.500;10.176;2022-07-06T05:36:55;3.00;;;1.70;;
7029;SDS011;3556;53.500;10.176;2022-07-06T05:39:20;8.83;;;1.70;;
7029;SDS011;3556;53.500;10.176;2022-07-06T05:41:47;3.63;;;1.50;;
7029;SDS011;3556;53.500;10.176;2022-07-06T05:44:13;3.97;;;1.70;;
7029;SDS011;3556;53.500;10.176;2022-07-06T05:46:39;1.70;;;1.50;;
7029;SDS011;3556;53.500;10.176;2022-07-06T05:49:05;2.10;;;1.90;;
7029;SDS011;3556;53.500;10.176;2022-07-06T05:51:49;1.67;;;1.53;;
7029;SDS011;3556;53.500;10.176;2022-07-06T05:54:15;7.10;;;1.80;;
7029;SDS011;3556;53.500;10.176;2022-07-06T05:56:41;3.13;;;1.60;;
7029;SDS011;3556;53.500;10.176;2022-07-06T05:59:07;4.00;;;1.50;;
7029;SDS011;3556;53.500;10.176;2022-07-06T06:01:32;4.20;;;1.73;;
7029;SDS011;3556;53.500;10.176;2022-07-06T06:03:58;1.60;;;1.50;;
7029;SDS011;3556;53.500;10.176;2022-07-06T06:06:24;4.10;;;1.70;;
7029;SDS011;3556;53.500;10.176;2022-07-06T06:08:51;5.00;;;2.10;;
7029;SDS011;3556;53.500;10.176;2022-07-06T06:11:17;4.00;;;1.50;;
7029;SDS011;3556;53.500;10.176;2022-07-06T06:13:42;1.70;;;1.60;;
7029;SDS011;3556;53.500;10.176;2022-07-06T06:16:08;3.83;;;1.40;;
7029;SDS011;3556;53.500;10.176;2022-07-06T06:18:34;1.50;;;1.40;;
7029;SDS011;3556;53.500;10.176;2022-07-06T06:21:00;5.40;;;1.50;;
7029;SDS011;3556;53.500;10.176;2022-07-06T06:23:25;5.73;;;1.33;;
7029;SDS011;3556;53.500;10.176;2022-07-06T06:25:51;5.80;;;1.63;;
7029;SDS011;3556;53.500;10.176;2022-07-06T06:28:17;4.80;;;1.47;;
7029;SDS011;3556;53.500;10.176;2022-07-06T06:30:42;1.60;;;1.50;;
7029;SDS011;3556;53.500;10.176;2022-07-06T06:33:12;3.07;;;1.80;;
7029;SDS011;3556;53.500;10.176;2022-07-06T06:35:46;4.27;;;1.70;;
7029;SDS011;3556;53.500;10.176;2022-07-06T06:38:13;6.77;;;2.00;;
7029;SDS011;3556;53.500;10.176;2022-07-06T06:40:39;3.20;;;1.30;;
7029;SDS011;3556;53.500;10.176;2022-07-06T06:43:05;1.27;;;1.17;;
7029;SDS011;3556;53.500;10.176;2022-07-06T06:45:31;2.43;;;1.23;;
7029;SDS011;3556;53.500;10.176;2022-07-06T06:47:56;1.63;;;1.30;;
7029;SDS011;3556;53.500;10.176;2022-07-06T06:50:22;2.07;;;1.60;;
7029;SDS011;3556;53.500;10.176;2022-07-06T06:52:49;1.87;;;1.40;;
7029;SDS011;3556;53.500;10.176;2022-07-06T06:55:15;4.40;;;1.30;;
7029;SDS011;3556;53.500;10.176;2022-07-06T06:57:41;11.83;;;1.83;;
7029;SDS011;3556;53.500;10.176;2022-07-06T07:00:07;4.03;;;1.70;;
7029;SDS011;3556;53.500;10.176;2022-07-06T07:02:33;6.50;;;1.40;;
7029;SDS011;3556;53.500;10.176;2022-07-06T07:04:59;3.43;;;1.43;;
7029;SDS011;3556;53.500;10.176;2022-07-06T07:07:25;1.43;;;1.33;;
7029;SDS011;3556;53.500;10.176;2022-07-06T07:09:50;1.67;;;1.57;;
7029;SDS011;3556;53.500;10.176;2022-07-06T07:12:16;3.23;;;1.40;;
7029;SDS011;3556;53.500;10.176;2022-07-06T07:14:42;1.53;;;1.13;;
7029;SDS011;3556;53.500;10.176;2022-07-06T07:17:08;3.20;;;1.50;;
7029;SDS011;3556;53.500;10.176;2022-07-06T07:19:35;5.13;;;1.50;;
7029;SDS011;3556;53.500;10.176;2022-07-06T07:22:01;1.63;;;1.00;;
7029;SDS011;3556;53.500;10.176;2022-07-06T07:24:26;2.03;;;1.13;;
7029;SDS011;3556;53.500;10.176;2022-07-06T07:26:52;5.07;;;1.10;;
7029;SDS011;3556;53.500;10.176;2022-07-06T07:29:18;1.83;;;1.10;;
7029;SDS011;3556;53.500;10.176;2022-07-06T07:31:43;2.20;;;1.00;;
7029;SDS011;3556;53.500;10.176;2022-07-06T07:34:09;2.20;;;1.00;;
7029;SDS011;3556;53.500;10.176;2022-07-06T07:36:34;1.00;;;1.00;;
7029;SDS011;3556;53.500;10.176;2022-07-06T07:39:00;6.03;;;1.20;;
7029;SDS011;3556;53.500;10.176;2022-07-06T07:41:26;1.60;;;1.50;;
7029;SDS011;3556;53.500;10.176;2022-07-06T07:43:52;3.37;;;1.50;;
7029;SDS011;3556;53.500;10.176;2022-07-06T07:46:18;1.13;;;1.03;;
7029;SDS011;3556;53.500;10.176;2022-07-06T07:48:43;1.50;;;1.10;;
7029;SDS011;3556;53.500;10.176;2022-07-06T07:51:09;1.30;;;1.20;;
7029;SDS011;3556;53.500;10.176;2022-07-06T07:53:34;2.03;;;1.10;;
7029;SDS011;3556;53.500;10.176;2022-07-06T07:56:00;3.60;;;1.30;;
7029;SDS011;3556;53.500;10.176;2022-07-06T07:58:26;3.03;;;1.20;;
7029;SDS011;3556;53.500;10.176;2022-07-06T08:00:52;2.47;;;1.17;;
7029;SDS011;3556;53.500;10.176;2022-07-06T08:03:17;5.43;;;1.37;;
7029;SDS011;3556;53.500;10.176;2022-07-06T08:05:43;11.40;;;1.23;;
7029;SDS011;3556;53.500;10.176;2022-07-06T08:08:09;1.60;;;1.10;;
7029;SDS011;3556;53.500;10.176;2022-07-06T08:10:34;4.17;;;1.30;;
7029;SDS011;3556;53.500;10.176;2022-07-06T08:13:00;1.60;;;1.40;;
7029;SDS011;3556;53.500;10.176;2022-07-06T08:15:26;2.50;;;1.07;;
7029;SDS011;3556;53.500;10.176;2022-07-06T08:17:51;4.33;;;1.40;;
7029;SDS011;3556;53.500;10.176;2022-07-06T08:20:17;5.03;;;1.40;;
7029;SDS011;3556;53.500;10.176;2022-07-06T08:22:43;1.33;;;1.23;;
7029;SDS011;3556;53.500;10.176;2022-07-06T08:25:09;3.30;;;2.10;;
7029;SDS011;3556;53.500;10.176;2022-07-06T08:27:34;1.73;;;1.13;;
7029;SDS011;3556;53.500;10.176;2022-07-06T08:30:00;1.20;;;0.90;;
7029;SDS011;3556;53.500;10.176;2022-07-06T08:32:27;0.97;;;0.87;;
7029;SDS011;3556;53.500;10.176;2022-07-06T08:34:53;2.50;;;0.83;;
7029;SDS011;3556;53.500;10.176;2022-07-06T08:37:18;1.27;;;1.10;;
7029;SDS011;3556;53.500;10.176;2022-07-06T08:39:44;2.00;;;0.90;;
7029;SDS011;3556;53.500;10.176;2022-07-06T08:42:10;1.57;;;0.93;;
7029;SDS011;3556;53.500;10.176;2022-07-06T08:44:37;1.27;;;1.00;;
7029;SDS011;3556;53.500;10.176;2022-07-06T08:47:04;1.37;;;0.87;;
7029;SDS011;3556;53.500;10.176;2022-07-06T08:49:34;1.53;;;0.93;;
7029;SDS011;3556;53.500;10.176;2022-07-06T08:52:01;1.20;;;0.93;;
7029;SDS011;3556;53.500;10.176;2022-07-06T08:54:28;1.20;;;1.10;;
7029;SDS011;3556;53.500;10.176;2022-07-06T08:56:54;1.43;;;1.33;;
7029;SDS011;3556;53.500;10.176;2022-07-06T08:59:20;1.00;;;0.90;;
7029;SDS011;3556;53.500;10.176;2022-07-06T09:01:46;3.13;;;1.20;;
7029;SDS011;3556;53.500;10.176;2022-07-06T09:04:12;4.23;;;1.13;;
7029;SDS011;3556;53.500;10.176;2022-07-06T09:06:42;1.27;;;1.20;;
7029;SDS011;3556;53.500;10.176;2022-07-06T09:09:10;1.53;;;0.97;;
7029;SDS011;3556;53.500;10.176;2022-07-06T09:11:42;1.13;;;1.03;;
7029;SDS011;3556;53.500;10.176;2022-07-06T09:14:08;5.07;;;1.00;;
7029;SDS011;3556;53.500;10.176;2022-07-06T09:16:34;2.20;;;1.20;;
7029;SDS011;3556;53.500;10.176;2022-07-06T09:19:00;1.97;;;1.10;;
7029;SDS011;3556;53.500;10.176;2022-07-06T09:21:30;1.00;;;1.00;;
7029;SDS011;3556;53.500;10.176;2022-07-06T09:23:58;2.30;;;1.40;;
7029;SDS011;3556;53.500;10.176;2022-07-06T09:26:28;4.40;;;1.30;;
7029;SDS011;3556;53.500;10.176;2022-07-06T09:28:57;1.63;;;1.30;;
7029;SDS011;3556;53.500;10.176;2022-07-06T09:31:24;1.73;;;1.10;;
7029;SDS011;3556;53.500;10.176;2022-07-06T09:36:36;1.40;;;1.30;;
7029;SDS011;3556;53.500;10.176;2022-07-06T09:39:25;3.63;;;1.20;;
7029;SDS011;3556;53.500;10.176;2022-07-06T09:41:53;1.50;;;1.40;;
7029;SDS011;3556;53.500;10.176;2022-07-06T09:44:29;1.33;;;1.23;;
7029;SDS011;3556;53.500;10.176;2022-07-06T09:46:57;8.10;;;3.43;;
7029;SDS011;3556;53.500;10.176;2022-07-06T09:49:25;1.20;;;1.10;;
7029;SDS011;3556;53.500;10.176;2022-07-06T09:51:52;4.50;;;1.30;;
7029;SDS011;3556;53.500;10.176;2022-07-06T09:54:19;1.47;;;1.37;;
7029;SDS011;3556;53.500;10.176;2022-07-06T09:56:45;1.07;;;1.00;;
7029;SDS011;3556;53.500;10.176;2022-07-06T09:59:21;1.30;;;1.13;;
7029;SDS011;3556;53.500;10.176;2022-07-06T10:01:53;1.20;;;1.10;;
7029;SDS011;3556;53.500;10.176;2022-07-06T10:04:20;2.73;;;1.33;;
7029;SDS011;3556;53.500;10.176;2022-07-06T10:06:48;1.33;;;1.27;;
7029;SDS011;3556;53.500;10.176;2022-07-06T10:09:14;3.60;;;1.20;;
7029;SDS011;3556;53.500;10.176;2022-07-06T10:11:42;3.57;;;2.00;;
7029;SDS011;3556;53.500;10.176;2022-07-06T10:14:11;1.90;;;1.80;;
7029;SDS011;3556;53.500;10.176;2022-07-06T10:16:39;1.73;;;1.63;;
7029;SDS011;3556;53.500;10.176;2022-07-06T10:19:06;1.83;;;1.73;;
7029;SDS011;3556;53.500;10.176;2022-07-06T10:21:35;9.53;;;3.33;;
7029;SDS011;3556;53.500;10.176;2022-07-06T10:24:03;2.20;;;2.10;;
7029;SDS011;3556;53.500;10.176;2022-07-06T10:26:29;1.50;;;1.40;;
7029;SDS011;3556;53.500;10.176;2022-07-06T10:29:00;3.50;;;1.53;;
7029;SDS011;3556;53.500;10.176;2022-07-06T10:31:27;1.30;;;1.23;;
7029;SDS011;3556;53.500;10.176;2022-07-06T10:33:55;4.60;;;2.20;;
7029;SDS011;3556;53.500;10.176;2022-07-06T10:36:22;4.87;;;1.70;;
7029;SDS011;3556;53.500;10.176;2022-07-06T10:38:49;2.60;;;1.40;;
7029;SDS011;3556;53.500;10.176;2022-07-06T10:41:16;1.77;;;1.30;;
7029;SDS011;3556;53.500;10.176;2022-07-06T10:43:47;1.50;;;1.40;;
7029;SDS011;3556;53.500;10.176;2022-07-06T10:46:14;2.50;;;1.27;;
7029;SDS011;3556;53.500;10.176;2022-07-06T10:48:44;1.70;;;1.60;;
7029;SDS011;3556;53.500;10.176;2022-07-06T10:51:12;1.10;;;1.00;;
7029;SDS011;3556;53.500;10.176;2022-07-06T10:53:46;1.40;;;1.10;;
7029;SDS011;3556;53.500;10.176;2022-07-06T10:56:21;1.40;;;1.30;;
7029;SDS011;3556;53.500;10.176;2022-07-06T10:59:01;0.90;;;0.90;;
7029;SDS011;3556;53.500;10.176;2022-07-06T11:01:35;0.90;;;0.90;;
7029;SDS011;3556;53.500;10.176;2022-07-06T11:06:27;5.07;;;0.83;;
7029;SDS011;3556;53.500;10.176;2022-07-06T11:09:06;7.00;;;0.83;;
7029;SDS011;3556;53.500;10.176;2022-07-06T11:14:01;2.87;;;0.60;;
7029;SDS011;3556;53.500;10.176;2022-07-06T11:16:28;0.70;;;0.70;;
7029;SDS011;3556;53.500;10.176;2022-07-06T11:21:35;1.90;;;0.90;;
7029;SDS011;3556;53.500;10.176;2022-07-06T11:24:01;3.07;;;1.10;;
7029;SDS011;3556;53.500;10.176;2022-07-06T11:26:28;1.07;;;0.83;;
7029;SDS011;3556;53.500;10.176;2022-07-06T11:28:55;0.83;;;0.70;;
7029;SDS011;3556;53.500;10.176;2022-07-06T11:31:23;1.00;;;0.67;;
7029;SDS011;3556;53.500;10.176;2022-07-06T11:33:48;2.20;;;0.90;;
7029;SDS011;3556;53.500;10.176;2022-07-06T11:36:15;1.00;;;0.73;;
7029;SDS011;3556;53.500;10.176;2022-07-06T11:38:48;1.40;;;1.30;;
7029;SDS011;3556;53.500;10.176;2022-07-06T11:41:15;5.33;;;0.90;;
7029;SDS011;3556;53.500;10.176;2022-07-06T11:43:43;0.90;;;0.70;;
7029;SDS011;3556;53.500;10.176;2022-07-06T11:46:29;1.50;;;1.10;;
7029;SDS011;3556;53.500;10.176;2022-07-06T11:48:57;5.47;;;1.37;;
7029;SDS011;3556;53.500;10.176;2022-07-06T11:51:24;1.97;;;1.30;;
7029;SDS011;3556;53.500;10.176;2022-07-06T11:53:53;1.10;;;0.90;;
7029;SDS011;3556;53.500;10.176;2022-07-06T11:56:20;4.40;;;1.40;;
7029;SDS011;3556;53.500;10.176;2022-07-06T11:58:58;1.33;;;1.33;;
7029;SDS011;3556;53.500;10.176;2022-07-06T12:01:26;3.40;;;1.50;;
7029;SDS011;3556;53.500;10.176;2022-07-06T12:03:56;1.40;;;1.20;;
7029;SDS011;3556;53.500;10.176;2022-07-06T12:06:24;4.20;;;1.17;;
7029;SDS011;3556;53.500;10.176;2022-07-06T12:08:55;3.23;;;0.83;;
7029;SDS011;3556;53.500;10.176;2022-07-06T12:11:25;1.63;;;1.07;;
7029;SDS011;3556;53.500;10.176;2022-07-06T12:13:53;2.57;;;0.97;;
7029;SDS011;3556;53.500;10.176;2022-07-06T12:16:20;1.53;;;1.30;;
7029;SDS011;3556;53.500;10.176;2022-07-06T12:18:48;3.67;;;1.10;;
7029;SDS011;3556;53.500;10.176;2022-07-06T12:21:19;2.33;;;1.23;;
7029;SDS011;3556;53.500;10.176;2022-07-06T12:23:50;1.73;;;1.07;;
7029;SDS011;3556;53.500;10.176;2022-07-06T12:26:18;2.10;;;1.07;;
7029;SDS011;3556;53.500;10.176;2022-07-06T12:28:46;2.23;;;1.00;;
7029;SDS011;3556;53.500;10.176;2022-07-06T12:31:36;2.20;;;0.80;;
7029;SDS011;3556;53.500;10.176;2022-07-06T12:34:03;1.47;;;0.90;;
7029;SDS011;3556;53.500;10.176;2022-07-06T12:36:30;1.47;;;0.93;;
7029;SDS011;3556;53.500;10.176;2022-07-06T12:38:57;0.90;;;0.70;;
7029;SDS011;3556;53.500;10.176;2022-07-06T12:41:29;0.90;;;0.80;;
7029;SDS011;3556;53.500;10.176;2022-07-06T12:44:04;1.10;;;0.60;;
7029;SDS011;3556;53.500;10.176;2022-07-06T12:46:33;1.13;;;0.70;;
7029;SDS011;3556;53.500;10.176;2022-07-06T12:48:59;4.53;;;0.97;;
7029;SDS011;3556;53.500;10.176;2022-07-06T12:51:27;0.90;;;0.70;;
7029;SDS011;3556;53.500;10.176;2022-07-06T12:53:53;1.93;;;0.73;;
7029;SDS011;3556;53.500;10.176;2022-07-06T12:56:36;0.90;;;0.70;;
7029;SDS011;3556;53.500;10.176;2022-07-06T12:59:02;3.73;;;0.70;;
7029;SDS011;3556;53.500;10.176;2022-07-06T13:01:27;1.40;;;0.60;;
7029;SDS011;3556;53.500;10.176;2022-07-06T13:03:54;1.87;;;1.17;;
7029;SDS011;3556;53.500;10.176;2022-07-06T13:06:28;1.37;;;0.60;;
7029;SDS011;3556;53.500;10.176;2022-07-06T13:08:55;6.00;;;1.00;;
7029;SDS011;3556;53.500;10.176;2022-07-06T13:11:21;2.87;;;0.80;;
7029;SDS011;3556;53.500;10.176;2022-07-06T13:13:47;1.10;;;0.60;;
7029;SDS011;3556;53.500;10.176;2022-07-06T13:16:12;1.10;;;0.90;;
7029;SDS011;3556;53.500;10.176;2022-07-06T13:18:38;1.70;;;0.73;;
7029;SDS011;3556;53.500;10.176;2022-07-06T13:21:03;1.73;;;0.70;;
7029;SDS011;3556;53.500;10.176;2022-07-06T13:23:29;6.33;;;1.00;;
7029;SDS011;3556;53.500;10.176;2022-07-06T13:25:55;1.00;;;0.60;;
7029;SDS011;3556;53.500;10.176;2022-07-06T13:28:20;2.30;;;0.63;;
7029;SDS011;3556;53.500;10.176;2022-07-06T13:30:46;2.10;;;0.70;;
7029;SDS011;3556;53.500;10.176;2022-07-06T13:33:12;0.67;;;0.50;;
7029;SDS011;3556;53.500;10.176;2022-07-06T13:35:37;2.03;;;0.57;;
7029;SDS011;3556;53.500;10.176;2022-07-06T13:38:03;1.63;;;0.60;;
7029;SDS011;3556;53.500;10.176;2022-07-06T13:40:28;0.90;;;0.60;;
7029;SDS011;3556;53.500;10.176;2022-07-06T13:42:54;0.90;;;0.67;;
7029;SDS011;3556;53.500;10.176;2022-07-06T13:45:20;1.07;;;0.60;;
7029;SDS011;3556;53.500;10.176;2022-07-06T13:47:45;1.53;;;0.80;;
7029;SDS011;3556;53.500;10.176;2022-07-06T13:50:11;2.20;;;0.50;;
7029;SDS011;3556;53.500;10.176;2022-07-06T13:52:37;1.47;;;0.57;;
7029;SDS011;3556;53.500;10.176;2022-07-06T13:55:03;6.40;;;0.90;;
7029;SDS011;3556;53.500;10.176;2022-07-06T13:57:31;1.27;;;0.50;;
7029;SDS011;3556;53.500;10.176;2022-07-06T13:59:56;3.27;;;0.70;;
7029;SDS011;3556;53.500;10.176;2022-07-06T14:02:22;2.80;;;0.60;;
7029;SDS011;3556;53.500;10.176;2022-07-06T14:04:47;0.80;;;0.70;;
7029;SDS011;3556;53.500;10.176;2022-07-06T14:07:13;0.67;;;0.50;;
7029;SDS011;3556;53.500;10.176;2022-07-06T14:09:39;1.97;;;0.60;;
7029;SDS011;3556;53.500;10.176;2022-07-06T14:12:04;1.10;;;1.00;;
7029;SDS011;3556;53.500;10.176;2022-07-06T14:14:30;0.80;;;0.60;;
7029;SDS011;3556;53.500;10.176;2022-07-06T14:16:56;2.37;;;0.63;;
7029;SDS011;3556;53.500;10.176;2022-07-06T14:19:23;0.70;;;0.60;;
7029;SDS011;3556;53.500;10.176;2022-07-06T14:21:49;1.03;;;0.70;;
7029;SDS011;3556;53.500;10.176;2022-07-06T14:24:15;1.17;;;0.80;;
7029;SDS011;3556;53.500;10.176;2022-07-06T14:26:40;0.80;;;0.50;;
7029;SDS011;3556;53.500;10.176;2022-07-06T14:29:06;2.97;;;0.70;;
7029;SDS011;3556;53.500;10.176;2022-07-06T14:31:31;2.03;;;0.43;;
7029;SDS011;3556;53.500;10.176;2022-07-06T14:33:57;0.63;;;0.50;;
7029;SDS011;3556;53.500;10.176;2022-07-06T14:36:23;1.47;;;0.60;;
7029;SDS011;3556;53.500;10.176;2022-07-06T14:38:48;2.27;;;0.53;;
7029;SDS011;3556;53.500;10.176;2022-07-06T14:41:14;1.63;;;0.60;;
7029;SDS011;3556;53.500;10.176;2022-07-06T14:43:39;0.90;;;0.50;;
7029;SDS011;3556;53.500;10.176;2022-07-06T14:46:05;1.10;;;0.50;;
7029;SDS011;3556;53.500;10.176;2022-07-06T14:48:31;2.00;;;0.60;;
7029;SDS011;3556;53.500;10.176;2022-07-06T14:50:57;0.70;;;0.50;;
7029;SDS011;3556;53.500;10.176;2022-07-06T14:53:23;3.90;;;0.60;;
7029;SDS011;3556;53.500;10.176;2022-07-06T14:55:48;1.10;;;0.50;;
7029;SDS011;3556;53.500;10.176;2022-07-06T14:58:14;2.43;;;0.60;;
7029;SDS011;3556;53.500;10.176;2022-07-06T15:00:42;4.07;;;1.20;;
7029;SDS011;3556;53.500;10.176;2022-07-06T15:03:10;0.90;;;0.63;;
7029;SDS011;3556;53.500;10.176;2022-07-06T15:05:36;1.00;;;0.60;;
7029;SDS011;3556;53.500;10.176;2022-07-06T15:08:02;1.00;;;0.70;;